McFarland, California
Current Conditions -  °F | °C
As of 5:54 AM on Tuesday 27 Jan 2015 (Local Time) from KBFL Reporting Station
Haze Haze  
Wind Chill: 54°   Ceiling: 5000
Heat Index: 54°   Visibility: 6mi
Dew Point: 49°   Wind: 6mph
Humidity: 83%   Direction: 110°ESE
Pressure: 30.16"   Gusts: NA
Location:  35.68°N, 119.22°W
Report Text: KBFL 271354Z 11005KT 6SM HZ BKN050 OVC075 12/09 A3016 RMK AO2 SLP210 T01220094
Loading
Personal Weather Stations






























Interactive Weather Map New forecast layout! Learn more

10-Day Weather Forecast

Advertisements
Track Severe Weather on mobile